Taurus — WDB5562 — position and weather

sailwx.info

Track history (hours):
 
Tides and Currents Weather Stations Pressure Air Temp Water Temp Dewpoint Dewpoint Depression Visibility Wind Speed Wind Dir Waves Ship Positions

Taurus

Owner: Kirby Offshore Marine, LLC, Seattle, WA. More information available from US FCC via Universal Licensing System and Coast Guard Vessel Documentation Center.

Last reported at 2017-May-26 16:30 UTC. Time now 2017-May-26 16:55 UTC.
Position N 39°58' W 075°08'.

Length 24 m.

Type: Ship (hazmat cat B). MMSI: 366910990.

Date/timePositionNaut miles runAvg speedWind from/ knotsBaromVisibWave heightAir tempDewpointWater temp
2017-May-26 16:30N 39°58' W 075°08'2 4.6
2017-May-26 16:01N 39°59' W 075°05'0 0.4
2017-May-26 15:30N 39°59' W 075°05'0 0.0
2017-May-26 15:00N 39°59' W 075°05'0 0.0
2017-May-26 14:31N 39°59' W 075°05'0 0.0
2017-May-26 13:30N 39°59' W 075°05'0 0.0
2017-May-26 13:01N 39°59' W 075°05'0 0.0
2017-May-26 12:31N 39°59' W 075°05'0 0.0
2017-May-26 12:01N 39°59' W 075°05'0 0.0
2017-May-26 11:31N 39°59' W 075°05'2 3.2
2017-May-26 11:00N 39°58' W 075°07'3 5.2
2017-May-26 10:30N 39°56' W 075°08'3 5.5
2017-May-26 10:00N 39°53' W 075°08'3 5.2
2017-May-26 09:30N 39°53' W 075°12'1 2.3
2017-May-26 09:01N 39°54' W 075°13'1 1.4
2017-May-26 08:31N 39°54' W 075°12'0 0.0
2017-May-26 00:35N 39°54' W 075°12'0 2.1
2017-May-26 00:31N 39°54' W 075°12'0 0.5
2017-May-26 00:00N 39°54' W 075°12'0 0.0
2017-May-25 23:30N 39°54' W 075°12'0 0.0
2017-May-25 23:00N 39°54' W 075°12'0 0.0
2017-May-25 22:30N 39°54' W 075°12'1 1.6
2017-May-25 22:00N 39°54' W 075°13'1 1.1
2017-May-25 21:30N 39°54' W 075°12'2 4.6
2017-May-25 21:00N 39°53' W 075°09'4 7.6
2017-May-25 20:30N 39°57' W 075°08'4 7.1
2017-May-25 20:00N 39°59' W 075°05'1 1.8
2017-May-25 19:31N 39°59' W 075°06'4 7.0
2017-May-25 19:01N 39°55' W 075°08'4 7.0
2017-May-25 18:30N 39°53' W 075°11'5 9.1
2017-May-25 18:00N 39°51' W 075°16'5 9.4
2017-May-25 17:31N 39°50' W 075°22'1 1.2
2017-May-25 17:00N 39°50' W 075°23'2 4.4
2017-May-25 16:30N 39°51' W 075°21'3 5.8
2017-May-25 16:00N 39°51' W 075°17'3 5.7
2017-May-25 15:30N 39°52' W 075°13'3 5.7
2017-May-25 15:00N 39°53' W 075°10'3 3.4
2017-May-25 14:00N 39°56' W 075°08'1 2.9
2017-May-25 13:30N 39°57' W 075°08'3 5.1
2017-May-25 13:01N 39°59' W 075°05'0 0.0
2017-May-25 12:30N 39°59' W 075°05'2 3.7
2017-May-25 12:00N 39°58' W 075°07'1 1.8
2017-May-25 11:31N 39°57' W 075°08'3 6.1
2017-May-25 11:01N 39°59' W 075°05'2 3.1
2017-May-25 10:30N 39°58' W 075°06'3 5.3
2017-May-25 10:01N 39°56' W 075°08'3 5.6
2017-May-25 09:31N 39°53' W 075°08'3 5.1
2017-May-25 09:01N 39°53' W 075°12'1 2.3
2017-May-25 08:30N 39°54' W 075°13'0 0.0
2017-May-25 08:01N 39°54' W 075°13'1 1.3
2017-May-25 07:31N 39°54' W 075°12'0 0.0
2017-May-25 07:00N 39°54' W 075°12'0 0.0
2017-May-25 06:30N 39°54' W 075°12'0 0.0
2017-May-25 06:01N 39°54' W 075°12'0 0.0
2017-May-25 05:30N 39°54' W 075°12'0 0.0
2017-May-25 05:00N 39°54' W 075°12'0 0.0
2017-May-25 04:30N 39°54' W 075°12'0 0.0
2017-May-25 04:00N 39°54' W 075°12'0 0.0
2017-May-25 03:30N 39°54' W 075°12'1 1.3
2017-May-25 03:01N 39°54' W 075°13'0 0.5
2017-May-25 02:30N 39°54' W 075°12'2 3.1
2017-May-25 02:01N 39°53' W 075°11'2 4.1
2017-May-25 01:31N 39°54' W 075°08'3 5.1
2017-May-25 01:00N 39°56' W 075°08'3 5.5
2017-May-25 00:30N 39°58' W 075°06'1 2.4
2017-May-25 00:00N 39°59' W 075°05'0 0.0
2017-May-24 23:31N 39°59' W 075°05'0 0.0
2017-May-24 23:00N 39°59' W 075°05'3 6.0
2017-May-24 22:30N 39°57' W 075°08'4 7.4
2017-May-24 22:00N 39°54' W 075°08'3 6.6
2017-May-24 21:30N 39°53' W 075°12'3 7.0
2017-May-24 21:00N 39°51' W 075°16'0 0.1
2017-May-24 20:30N 39°51' W 075°16'0 0.6
2017-May-24 20:00N 39°51' W 075°16'3 6.9
2017-May-24 19:30N 39°51' W 075°21'1 1.5
2017-May-24 19:00N 39°50' W 075°22'1 2.2
2017-May-24 18:30N 39°50' W 075°23'1 2.5
2017-May-24 18:00N 39°50' W 075°22'1 2.5
2017-May-24 17:31N 39°50' W 075°23'0 0.1
2017-May-24 17:00N 39°50' W 075°23'0 0.0
2017-May-24 16:30N 39°50' W 075°23'0 0.0
2017-May-24 16:00N 39°50' W 075°23'0 0.0
2017-May-24 15:30N 39°50' W 075°23'1 2.5
2017-May-24 15:00N 39°50' W 075°22'0 0.0
2017-May-24 14:30N 39°50' W 075°22'3 3.3
2017-May-24 13:30N 39°51' W 075°18'4 7.2
2017-May-24 13:00N 39°52' W 075°13'4 7.8
2017-May-24 12:30N 39°54' W 075°08'4 8.9
2017-May-24 12:01N 39°58' W 075°07'2 4.5
2017-May-24 11:30N 39°59' W 075°05'3 5.4
2017-May-24 11:01N 39°58' W 075°08'3 5.9
2017-May-24 10:31N 39°55' W 075°08'3 5.1
2017-May-24 10:01N 39°53' W 075°10'2 4.1
2017-May-24 09:31N 39°54' W 075°13'1 1.4
2017-May-24 09:01N 39°54' W 075°12'0 0.0
2017-May-24 08:30N 39°54' W 075°12'0 0.0
2017-May-23 19:16N 39°54' W 075°12'0 1.9
2017-May-23 19:01N 39°54' W 075°12'0 1.0
2017-May-23 18:31N 39°54' W 075°12'2 5.0
2017-May-23 18:01N 39°53' W 075°09'3 6.9
2017-May-23 17:31N 39°57' W 075°08'3 5.9
2017-May-23 17:01N 39°59' W 075°05'1 1.4
2017-May-23 16:30N 39°59' W 075°05'0 0.0
2017-May-23 16:00N 39°59' W 075°05'0 0.0
2017-May-23 15:31N 39°59' W 075°05'0 0.0
2017-May-23 15:00N 39°59' W 075°05'0 0.0
2017-May-23 14:30N 39°59' W 075°05'0 0.0
2017-May-23 13:30N 39°59' W 075°05'0 0.0
2017-May-23 13:00N 39°59' W 075°05'0 0.0
2017-May-23 12:30N 39°59' W 075°05'0 0.0
2017-May-23 12:01N 39°59' W 075°05'0 0.2
2017-May-23 11:30N 39°59' W 075°05'3 6.1
2017-May-23 11:00N 39°57' W 075°08'3 6.2
2017-May-23 10:30N 39°54' W 075°08'3 5.2
2017-May-23 10:00N 39°53' W 075°11'1 2.8
2017-May-23 09:30N 39°54' W 075°12'0 0.4
2017-May-23 09:01N 39°54' W 075°12'0 0.4
2017-May-23 08:30N 39°54' W 075°12'1 0.0
2017-May-22 17:56N 39°54' W 075°13'1 1.3
2017-May-22 17:30N 39°54' W 075°12'2 3.8
2017-May-22 17:00N 39°53' W 075°10'3 6.1
2017-May-22 16:30N 39°56' W 075°08'3 5.9
2017-May-22 16:00N 39°58' W 075°06'2 3.1
2017-May-22 15:30N 39°59' W 075°05'0 0.1
2017-May-22 15:00N 39°59' W 075°05'0 0.0
2017-May-22 14:00N 39°59' W 075°05'0 0.0
2017-May-22 13:30N 39°59' W 075°05'0 0.0
2017-May-22 13:00N 39°59' W 075°05'0 0.0
2017-May-22 12:30N 39°59' W 075°05'0 0.0
2017-May-22 12:00N 39°59' W 075°05'0 0.0
2017-May-22 11:30N 39°59' W 075°05'0 0.0
2017-May-22 11:00N 39°59' W 075°05'2 4.4
2017-May-22 10:30N 39°58' W 075°07'3 6.3
2017-May-22 10:00N 39°55' W 075°08'3 5.4
2017-May-22 09:30N 39°53' W 075°10'2 4.3
2017-May-22 09:00N 39°54' W 075°13'1 1.4
2017-May-22 08:30N 39°54' W 075°12'1 0.0
2017-May-21 17:48N 39°54' W 075°13'0 0.4
2017-May-21 17:30N 39°54' W 075°13'1 2.5
2017-May-21 17:00N 39°53' W 075°12'3 6.3
2017-May-21 16:30N 39°54' W 075°08'4 7.2
2017-May-21 16:00N 39°58' W 075°07'2 4.8
2017-May-21 15:30N 39°59' W 075°05'0 0.1
2017-May-21 15:00N 39°59' W 075°05'0 0.0
2017-May-21 14:30N 39°59' W 075°05'0 0.0
2017-May-21 13:30N 39°59' W 075°05'0 0.0
2017-May-21 13:00N 39°59' W 075°05'0 0.0
2017-May-21 12:30N 39°59' W 075°05'0 0.0
2017-May-21 12:00N 39°59' W 075°05'0 0.0
2017-May-21 11:30N 39°59' W 075°05'0 0.0
2017-May-21 11:00N 39°59' W 075°05'0 0.6
2017-May-21 10:30N 39°59' W 075°05'4 7.2
2017-May-21 10:00N 39°56' W 075°08'3 6.8
2017-May-21 09:30N 39°53' W 075°09'3 5.4
2017-May-21 09:00N 39°54' W 075°13'0 0.7
2017-May-21 08:30N 39°54' W 075°12'0 0.0
2017-May-20 20:09N 39°54' W 075°12'0 0.0
2017-May-20 20:01N 39°54' W 075°12'0 0.0
2017-May-20 19:31N 39°54' W 075°12'0 0.0
2017-May-20 19:01N 39°54' W 075°12'0 0.0
2017-May-20 18:31N 39°54' W 075°12'0 0.0
2017-May-20 18:01N 39°54' W 075°12'0 0.0
2017-May-20 17:31N 39°54' W 075°12'0 0.0
2017-May-20 17:01N 39°54' W 075°12'0 0.0
2017-May-20 16:31N 39°54' W 075°12'0 0.0
2017-May-20 16:00N 39°54' W 075°12'0 0.0
2017-May-20 15:31N 39°54' W 075°12'0 0.0
2017-May-20 15:01N 39°54' W 075°12'0 0.0
2017-May-20 14:31N 39°54' W 075°12'0 0.0
2017-May-20 13:31N 39°54' W 075°12'0 0.0
2017-May-20 13:01N 39°54' W 075°12'0 0.0
2017-May-20 12:30N 39°54' W 075°12'0 0.0
2017-May-20 12:01N 39°54' W 075°12'1 0.0
2017-May-19 17:48N 39°54' W 075°13'0 0.3
2017-May-19 17:30N 39°54' W 075°13'1 2.5
2017-May-19 17:00N 39°53' W 075°12'3 6.1
2017-May-19 16:30N 39°54' W 075°08'4 7.5
2017-May-19 16:00N 39°58' W 075°07'2 4.8
2017-May-19 15:30N 39°59' W 075°05'0 0.1
2017-May-19 15:00N 39°59' W 075°05'0 0.0
2017-May-19 14:00N 39°59' W 075°05'0 0.0
2017-May-19 13:30N 39°59' W 075°05'0 0.0
2017-May-19 13:00N 39°59' W 075°05'0 0.0
2017-May-19 12:30N 39°59' W 075°05'0 0.0
2017-May-19 12:00N 39°59' W 075°05'0 0.0
2017-May-19 11:30N 39°59' W 075°05'0 0.0
2017-May-19 11:00N 39°59' W 075°05'0 0.0
2017-May-19 10:30N 39°59' W 075°05'3 5.7
2017-May-19 10:00N 39°58' W 075°08'4 8.9
2017-May-19 09:30N 39°53' W 075°08'3 6.3
2017-May-19 09:00N 39°54' W 075°12'0 0.0
2017-May-19 08:30N 39°54' W 075°12'0 0.0
2017-May-18 18:09N 39°54' W 075°13'0 0.0
2017-May-18 18:00N 39°54' W 075°13'2 3.0
2017-May-18 17:30N 39°53' W 075°11'3 6.5
2017-May-18 17:00N 39°55' W 075°08'4 7.1
2017-May-18 16:30N 39°58' W 075°07'2 3.5
2017-May-18 16:00N 39°59' W 075°05'0 0.0
2017-May-18 15:30N 39°59' W 075°05'0 0.0
2017-May-18 15:00N 39°59' W 075°05'0 0.0
2017-May-18 14:30N 39°59' W 075°05'0 0.0
2017-May-18 13:30N 39°59' W 075°05'0 0.0
2017-May-18 13:00N 39°59' W 075°05'0 0.0
2017-May-18 12:30N 39°59' W 075°05'0 0.0
2017-May-18 12:00N 39°59' W 075°05'1 2.0
2017-May-18 11:30N 39°58' W 075°06'4 7.8
2017-May-18 11:00N 39°55' W 075°08'3 6.6
2017-May-18 10:30N 39°53' W 075°12'2 3.5
2017-May-18 10:00N 39°53' W 075°09'3 6.9
2017-May-18 09:30N 39°56' W 075°08'3 6.7
2017-May-18 09:00N 39°59' W 075°05'0 0.9
2017-May-18 08:30N 39°59' W 075°05'4 7.6
2017-May-18 07:56N 39°55' W 075°08'3 7.3
2017-May-18 07:30N 39°53' W 075°11'2 3.5
2017-May-18 07:00N 39°54' W 075°13'8 0.4
2017-May-17 11:37N 39°59' W 075°05'0 0.1
2017-May-17 11:31N 39°59' W 075°05'0 0.7
2017-May-17 11:00N 39°59' W 075°05'4 7.6
2017-May-17 10:31N 39°55' W 075°08'  
Track history (hours):
 
Tides and Currents Weather Stations Pressure Air Temp Water Temp Dewpoint Dewpoint Depression Visibility Wind Speed Wind Dir Waves Ship Positions

Taurus

Owner: Kirby Offshore Marine, LLC, Seattle, WA. More information available from US FCC via Universal Licensing System and Coast Guard Vessel Documentation Center.

Last reported at 2017-May-26 16:30 UTC. Time now 2017-May-26 16:55 UTC.
Position N 39°58' W 075°08'.

Length 24 m.

Type: Ship (hazmat cat B). MMSI: 366910990.

Date/timePositionNaut miles runAvg speedWind from/ knotsBaromVisibWave heightAir tempDewpointWater temp
2017-May-26 16:30N 39°58' W 075°08'2 4.6
2017-May-26 16:01N 39°59' W 075°05'0 0.4
2017-May-26 15:30N 39°59' W 075°05'0 0.0
2017-May-26 15:00N 39°59' W 075°05'0 0.0
2017-May-26 14:31N 39°59' W 075°05'0 0.0
2017-May-26 13:30N 39°59' W 075°05'0 0.0
2017-May-26 13:01N 39°59' W 075°05'0 0.0
2017-May-26 12:31N 39°59' W 075°05'0 0.0
2017-May-26 12:01N 39°59' W 075°05'0 0.0
2017-May-26 11:31N 39°59' W 075°05'2 3.2
2017-May-26 11:00N 39°58' W 075°07'3 5.2
2017-May-26 10:30N 39°56' W 075°08'3 5.5
2017-May-26 10:00N 39°53' W 075°08'3 5.2
2017-May-26 09:30N 39°53' W 075°12'1 2.3
2017-May-26 09:01N 39°54' W 075°13'1 1.4
2017-May-26 08:31N 39°54' W 075°12'0 0.0
2017-May-26 00:35N 39°54' W 075°12'0 2.1
2017-May-26 00:31N 39°54' W 075°12'0 0.5
2017-May-26 00:00N 39°54' W 075°12'0 0.0
2017-May-25 23:30N 39°54' W 075°12'0 0.0
2017-May-25 23:00N 39°54' W 075°12'0 0.0
2017-May-25 22:30N 39°54' W 075°12'1 1.6
2017-May-25 22:00N 39°54' W 075°13'1 1.1
2017-May-25 21:30N 39°54' W 075°12'2 4.6
2017-May-25 21:00N 39°53' W 075°09'4 7.6
2017-May-25 20:30N 39°57' W 075°08'4 7.1
2017-May-25 20:00N 39°59' W 075°05'1 1.8
2017-May-25 19:31N 39°59' W 075°06'4 7.0
2017-May-25 19:01N 39°55' W 075°08'4 7.0
2017-May-25 18:30N 39°53' W 075°11'5 9.1
2017-May-25 18:00N 39°51' W 075°16'5 9.4
2017-May-25 17:31N 39°50' W 075°22'1 1.2
2017-May-25 17:00N 39°50' W 075°23'2 4.4
2017-May-25 16:30N 39°51' W 075°21'3 5.8
2017-May-25 16:00N 39°51' W 075°17'3 5.7
2017-May-25 15:30N 39°52' W 075°13'3 5.7
2017-May-25 15:00N 39°53' W 075°10'3 3.4
2017-May-25 14:00N 39°56' W 075°08'1 2.9
2017-May-25 13:30N 39°57' W 075°08'3 5.1
2017-May-25 13:01N 39°59' W 075°05'0 0.0
2017-May-25 12:30N 39°59' W 075°05'2 3.7
2017-May-25 12:00N 39°58' W 075°07'1 1.8
2017-May-25 11:31N 39°57' W 075°08'3 6.1
2017-May-25 11:01N 39°59' W 075°05'2 3.1
2017-May-25 10:30N 39°58' W 075°06'3 5.3
2017-May-25 10:01N 39°56' W 075°08'3 5.6
2017-May-25 09:31N 39°53' W 075°08'3 5.1
2017-May-25 09:01N 39°53' W 075°12'1 2.3
2017-May-25 08:30N 39°54' W 075°13'0 0.0
2017-May-25 08:01N 39°54' W 075°13'1 1.3
2017-May-25 07:31N 39°54' W 075°12'0 0.0
2017-May-25 07:00N 39°54' W 075°12'0 0.0
2017-May-25 06:30N 39°54' W 075°12'0 0.0
2017-May-25 06:01N 39°54' W 075°12'0 0.0
2017-May-25 05:30N 39°54' W 075°12'0 0.0
2017-May-25 05:00N 39°54' W 075°12'0 0.0
2017-May-25 04:30N 39°54' W 075°12'0 0.0
2017-May-25 04:00N 39°54' W 075°12'0 0.0
2017-May-25 03:30N 39°54' W 075°12'1 1.3
2017-May-25 03:01N 39°54' W 075°13'0 0.5
2017-May-25 02:30N 39°54' W 075°12'2 3.1
2017-May-25 02:01N 39°53' W 075°11'2 4.1
2017-May-25 01:31N 39°54' W 075°08'3 5.1
2017-May-25 01:00N 39°56' W 075°08'3 5.5
2017-May-25 00:30N 39°58' W 075°06'1 2.4
2017-May-25 00:00N 39°59' W 075°05'0 0.0
2017-May-24 23:31N 39°59' W 075°05'0 0.0
2017-May-24 23:00N 39°59' W 075°05'3 6.0
2017-May-24 22:30N 39°57' W 075°08'4 7.4
2017-May-24 22:00N 39°54' W 075°08'3 6.6
2017-May-24 21:30N 39°53' W 075°12'3 7.0
2017-May-24 21:00N 39°51' W 075°16'0 0.1
2017-May-24 20:30N 39°51' W 075°16'0 0.6
2017-May-24 20:00N 39°51' W 075°16'3 6.9
2017-May-24 19:30N 39°51' W 075°21'1 1.5
2017-May-24 19:00N 39°50' W 075°22'1 2.2
2017-May-24 18:30N 39°50' W 075°23'1 2.5
2017-May-24 18:00N 39°50' W 075°22'1 2.5
2017-May-24 17:31N 39°50' W 075°23'0 0.1
2017-May-24 17:00N 39°50' W 075°23'0 0.0
2017-May-24 16:30N 39°50' W 075°23'0 0.0
2017-May-24 16:00N 39°50' W 075°23'0 0.0
2017-May-24 15:30N 39°50' W 075°23'1 2.5
2017-May-24 15:00N 39°50' W 075°22'0 0.0
2017-May-24 14:30N 39°50' W 075°22'3 3.3
2017-May-24 13:30N 39°51' W 075°18'4 7.2
2017-May-24 13:00N 39°52' W 075°13'4 7.8
2017-May-24 12:30N 39°54' W 075°08'4 8.9
2017-May-24 12:01N 39°58' W 075°07'2 4.5
2017-May-24 11:30N 39°59' W 075°05'3 5.4
2017-May-24 11:01N 39°58' W 075°08'3 5.9
2017-May-24 10:31N 39°55' W 075°08'3 5.1
2017-May-24 10:01N 39°53' W 075°10'2 4.1
2017-May-24 09:31N 39°54' W 075°13'1 1.4
2017-May-24 09:01N 39°54' W 075°12'0 0.0
2017-May-24 08:30N 39°54' W 075°12'0 0.0
2017-May-23 19:16N 39°54' W 075°12'0 1.9
2017-May-23 19:01N 39°54' W 075°12'0 1.0
2017-May-23 18:31N 39°54' W 075°12'2 5.0
2017-May-23 18:01N 39°53' W 075°09'3 6.9
2017-May-23 17:31N 39°57' W 075°08'3 5.9
2017-May-23 17:01N 39°59' W 075°05'1 1.4
2017-May-23 16:30N 39°59' W 075°05'0 0.0
2017-May-23 16:00N 39°59' W 075°05'0 0.0
2017-May-23 15:31N 39°59' W 075°05'0 0.0
2017-May-23 15:00N 39°59' W 075°05'0 0.0
2017-May-23 14:30N 39°59' W 075°05'0 0.0
2017-May-23 13:30N 39°59' W 075°05'0 0.0
2017-May-23 13:00N 39°59' W 075°05'0 0.0
2017-May-23 12:30N 39°59' W 075°05'0 0.0
2017-May-23 12:01N 39°59' W 075°05'0 0.2
2017-May-23 11:30N 39°59' W 075°05'3 6.1
2017-May-23 11:00N 39°57' W 075°08'3 6.2
2017-May-23 10:30N 39°54' W 075°08'3 5.2
2017-May-23 10:00N 39°53' W 075°11'1 2.8
2017-May-23 09:30N 39°54' W 075°12'0 0.4
2017-May-23 09:01N 39°54' W 075°12'0 0.4
2017-May-23 08:30N 39°54' W 075°12'1 0.0
2017-May-22 17:56N 39°54' W 075°13'1 1.3
2017-May-22 17:30N 39°54' W 075°12'2 3.8
2017-May-22 17:00N 39°53' W 075°10'3 6.1
2017-May-22 16:30N 39°56' W 075°08'3 5.9
2017-May-22 16:00N 39°58' W 075°06'2 3.1
2017-May-22 15:30N 39°59' W 075°05'0 0.1
2017-May-22 15:00N 39°59' W 075°05'0 0.0
2017-May-22 14:00N 39°59' W 075°05'0 0.0
2017-May-22 13:30N 39°59' W 075°05'0 0.0
2017-May-22 13:00N 39°59' W 075°05'0 0.0
2017-May-22 12:30N 39°59' W 075°05'0 0.0
2017-May-22 12:00N 39°59' W 075°05'0 0.0
2017-May-22 11:30N 39°59' W 075°05'0 0.0
2017-May-22 11:00N 39°59' W 075°05'2 4.4
2017-May-22 10:30N 39°58' W 075°07'3 6.3
2017-May-22 10:00N 39°55' W 075°08'3 5.4
2017-May-22 09:30N 39°53' W 075°10'2 4.3
2017-May-22 09:00N 39°54' W 075°13'1 1.4
2017-May-22 08:30N 39°54' W 075°12'1 0.0
2017-May-21 17:48N 39°54' W 075°13'0 0.4
2017-May-21 17:30N 39°54' W 075°13'1 2.5
2017-May-21 17:00N 39°53' W 075°12'3 6.3
2017-May-21 16:30N 39°54' W 075°08'4 7.2
2017-May-21 16:00N 39°58' W 075°07'2 4.8
2017-May-21 15:30N 39°59' W 075°05'0 0.1
2017-May-21 15:00N 39°59' W 075°05'0 0.0
2017-May-21 14:30N 39°59' W 075°05'0 0.0
2017-May-21 13:30N 39°59' W 075°05'0 0.0
2017-May-21 13:00N 39°59' W 075°05'0 0.0
2017-May-21 12:30N 39°59' W 075°05'0 0.0
2017-May-21 12:00N 39°59' W 075°05'0 0.0
2017-May-21 11:30N 39°59' W 075°05'0 0.0
2017-May-21 11:00N 39°59' W 075°05'0 0.6
2017-May-21 10:30N 39°59' W 075°05'4 7.2
2017-May-21 10:00N 39°56' W 075°08'3 6.8
2017-May-21 09:30N 39°53' W 075°09'3 5.4
2017-May-21 09:00N 39°54' W 075°13'0 0.7
2017-May-21 08:30N 39°54' W 075°12'0 0.0
2017-May-20 20:09N 39°54' W 075°12'0 0.0
2017-May-20 20:01N 39°54' W 075°12'0 0.0
2017-May-20 19:31N 39°54' W 075°12'0 0.0
2017-May-20 19:01N 39°54' W 075°12'0 0.0
2017-May-20 18:31N 39°54' W 075°12'0 0.0
2017-May-20 18:01N 39°54' W 075°12'0 0.0
2017-May-20 17:31N 39°54' W 075°12'0 0.0
2017-May-20 17:01N 39°54' W 075°12'0 0.0
2017-May-20 16:31N 39°54' W 075°12'0 0.0
2017-May-20 16:00N 39°54' W 075°12'0 0.0
2017-May-20 15:31N 39°54' W 075°12'0 0.0
2017-May-20 15:01N 39°54' W 075°12'0 0.0
2017-May-20 14:31N 39°54' W 075°12'0 0.0
2017-May-20 13:31N 39°54' W 075°12'0 0.0
2017-May-20 13:01N 39°54' W 075°12'0 0.0
2017-May-20 12:30N 39°54' W 075°12'0 0.0
2017-May-20 12:01N 39°54' W 075°12'1 0.0
2017-May-19 17:48N 39°54' W 075°13'0 0.3
2017-May-19 17:30N 39°54' W 075°13'1 2.5
2017-May-19 17:00N 39°53' W 075°12'3 6.1
2017-May-19 16:30N 39°54' W 075°08'4 7.5
2017-May-19 16:00N 39°58' W 075°07'2 4.8
2017-May-19 15:30N 39°59' W 075°05'0 0.1
2017-May-19 15:00N 39°59' W 075°05'0 0.0
2017-May-19 14:00N 39°59' W 075°05'0 0.0
2017-May-19 13:30N 39°59' W 075°05'0 0.0
2017-May-19 13:00N 39°59' W 075°05'0 0.0
2017-May-19 12:30N 39°59' W 075°05'0 0.0
2017-May-19 12:00N 39°59' W 075°05'0 0.0
2017-May-19 11:30N 39°59' W 075°05'0 0.0
2017-May-19 11:00N 39°59' W 075°05'0 0.0
2017-May-19 10:30N 39°59' W 075°05'3 5.7
2017-May-19 10:00N 39°58' W 075°08'4 8.9
2017-May-19 09:30N 39°53' W 075°08'3 6.3
2017-May-19 09:00N 39°54' W 075°12'0 0.0
2017-May-19 08:30N 39°54' W 075°12'0 0.0
2017-May-18 18:09N 39°54' W 075°13'0 0.0
2017-May-18 18:00N 39°54' W 075°13'2 3.0
2017-May-18 17:30N 39°53' W 075°11'3 6.5
2017-May-18 17:00N 39°55' W 075°08'4 7.1
2017-May-18 16:30N 39°58' W 075°07'2 3.5
2017-May-18 16:00N 39°59' W 075°05'0 0.0
2017-May-18 15:30N 39°59' W 075°05'0 0.0
2017-May-18 15:00N 39°59' W 075°05'0 0.0
2017-May-18 14:30N 39°59' W 075°05'0 0.0
2017-May-18 13:30N 39°59' W 075°05'0 0.0
2017-May-18 13:00N 39°59' W 075°05'0 0.0
2017-May-18 12:30N 39°59' W 075°05'0 0.0
2017-May-18 12:00N 39°59' W 075°05'1 2.0
2017-May-18 11:30N 39°58' W 075°06'4 7.8
2017-May-18 11:00N 39°55' W 075°08'3 6.6
2017-May-18 10:30N 39°53' W 075°12'2 3.5
2017-May-18 10:00N 39°53' W 075°09'3 6.9
2017-May-18 09:30N 39°56' W 075°08'3 6.7
2017-May-18 09:00N 39°59' W 075°05'0 0.9
2017-May-18 08:30N 39°59' W 075°05'4 7.6
2017-May-18 07:56N 39°55' W 075°08'3 7.3
2017-May-18 07:30N 39°53' W 075°11'2 3.5
2017-May-18 07:00N 39°54' W 075°13'8 0.4
2017-May-17 11:37N 39°59' W 075°05'0 0.1
2017-May-17 11:31N 39°59' W 075°05'0 0.7
2017-May-17 11:00N 39°59' W 075°05'4 7.6
2017-May-17 10:31N 39°55' W 075°08'  

Dump ship's entire track history